sensor_id;sensor_type;location;lat;lon;timestamp;temperature;humidity
44063;DHT22;29727;47.606;19.130;2022-09-12T14:45:38;23.70;45.90
44063;DHT22;29727;47.606;19.130;2022-09-12T14:48:04;23.60;47.00
44063;DHT22;29727;47.606;19.130;2022-09-12T14:50:34;23.60;47.80
44063;DHT22;29727;47.606;19.130;2022-09-12T14:53:06;23.40;46.70
44063;DHT22;29727;47.606;19.130;2022-09-12T14:55:34;23.30;46.40
44063;DHT22;29727;47.606;19.130;2022-09-12T14:58:15;23.10;46.40
44063;DHT22;29727;47.606;19.130;2022-09-12T15:03:49;22.80;46.60
44063;DHT22;29727;47.606;19.130;2022-09-12T15:06:30;22.80;47.20
44063;DHT22;29727;47.606;19.130;2022-09-12T16:40:00;22.20;47.70
44063;DHT22;29727;47.606;19.130;2022-09-12T16:42:26;22.20;47.80
44063;DHT22;29727;47.606;19.130;2022-09-12T16:44:51;22.20;48.50
44063;DHT22;29727;47.606;19.130;2022-09-12T16:47:17;22.10;48.30
44063;DHT22;29727;47.606;19.130;2022-09-12T16:49:43;22.10;48.50
44063;DHT22;29727;47.606;19.130;2022-09-12T16:52:09;22.10;48.50
44063;DHT22;29727;47.606;19.130;2022-09-12T16:54:35;22.00;48.60
44063;DHT22;29727;47.606;19.130;2022-09-12T16:57:01;22.00;48.80
44063;DHT22;29727;47.606;19.130;2022-09-12T16:59:29;22.00;49.00
44063;DHT22;29727;47.606;19.130;2022-09-12T17:01:55;22.00;49.80
44063;DHT22;29727;47.606;19.130;2022-09-12T17:04:21;22.00;50.90
44063;DHT22;29727;47.606;19.130;2022-09-12T17:06:46;22.10;49.90
44063;DHT22;29727;47.606;19.130;2022-09-12T17:09:12;22.10;50.70
44063;DHT22;29727;47.606;19.130;2022-09-12T17:11:43;22.10;51.00
44063;DHT22;29727;47.606;19.130;2022-09-12T17:14:10;22.10;50.60
44063;DHT22;29727;47.606;19.130;2022-09-12T17:16:41;22.10;50.20
44063;DHT22;29727;47.606;19.130;2022-09-12T17:19:11;22.10;50.00
44063;DHT22;29727;47.606;19.130;2022-09-12T17:21:38;22.00;49.90
44063;DHT22;29727;47.606;19.130;2022-09-12T17:24:03;21.90;50.00
44063;DHT22;29727;47.606;19.130;2022-09-12T17:26:29;21.80;50.10
44063;DHT22;29727;47.606;19.130;2022-09-12T17:28:55;21.80;50.60
44063;DHT22;29727;47.606;19.130;2022-09-12T17:31:20;21.80;51.00
44063;DHT22;29727;47.606;19.130;2022-09-12T17:33:46;21.70;51.30
44063;DHT22;29727;47.606;19.130;2022-09-12T17:36:14;21.70;52.50
44063;DHT22;29727;47.606;19.130;2022-09-12T17:38:41;21.60;53.50
44063;DHT22;29727;47.606;19.130;2022-09-12T17:41:23;21.60;53.80
44063;DHT22;29727;47.606;19.130;2022-09-12T17:43:54;21.60;53.00
44063;DHT22;29727;47.606;19.130;2022-09-12T17:46:25;21.50;53.40
44063;DHT22;29727;47.606;19.130;2022-09-12T17:48:55;21.50;53.90
44063;DHT22;29727;47.606;19.130;2022-09-12T17:51:26;21.50;53.60
44063;DHT22;29727;47.606;19.130;2022-09-12T17:53:59;21.40;53.10
44063;DHT22;29727;47.606;19.130;2022-09-12T17:56:27;21.40;53.20
44063;DHT22;29727;47.606;19.130;2022-09-12T17:58:55;21.30;52.10
